createdAt,value
2022-08-02T00:00:41.527Z,100705.94
2022-08-02T00:03:10.694Z,100712.78
2022-08-02T00:05:52.933Z,100702.03
2022-08-02T00:08:21.106Z,100703.88
2022-08-02T00:10:47.986Z,100703.88
2022-08-02T00:13:14.584Z,100703.28
2022-08-02T00:15:44.363Z,100700.78
2022-08-02T00:18:13.537Z,100698.09
2022-08-02T00:20:40.387Z,100697.47
2022-08-02T00:23:14.604Z,100691.69
2022-08-02T00:25:55.603Z,100685.50
2022-08-02T00:28:26.964Z,100686.31
2022-08-02T00:30:54.552Z,100684.06
2022-08-02T00:34:26.193Z,100686.13
2022-08-02T00:36:11.784Z,100682.78
2022-08-02T00:38:38.620Z,100685.88
2022-08-02T00:41:16.729Z,100684.00
2022-08-02T00:43:44.168Z,100692.28
2022-08-02T00:46:10.973Z,100691.44
2022-08-02T00:48:42.972Z,100686.28
2022-08-02T00:51:10.170Z,100682.16
2022-08-02T00:53:36.854Z,100688.56
2022-08-02T00:56:03.756Z,100695.38
2022-08-02T00:58:30.479Z,100697.47
2022-08-02T01:00:58.269Z,100696.41
2022-08-02T01:03:28.039Z,100694.34
2022-08-02T01:06:09.167Z,100687.97
2022-08-02T01:08:40.609Z,100688.19
2022-08-02T01:11:07.707Z,100685.69
2022-08-02T01:13:34.489Z,100678.03
2022-08-02T01:16:06.271Z,100683.81
2022-08-02T01:18:39.173Z,100679.47
2022-08-02T01:21:21.144Z,100674.72
2022-08-02T01:24:08.981Z,100679.03
2022-08-02T01:26:55.449Z,100677.97
2022-08-02T01:29:43.829Z,100683.19
2022-08-02T01:32:22.077Z,100683.56
2022-08-02T01:35:09.533Z,100675.88
2022-08-02T01:37:54.092Z,100679.38
2022-08-02T01:40:29.567Z,100675.88
2022-08-02T01:43:08.834Z,100666.78
2022-08-02T01:45:41.515Z,100667.59
2022-08-02T01:48:12.177Z,100667.19
2022-08-02T01:50:41.959Z,100679.75
2022-08-02T01:53:12.914Z,100676.44
2022-08-02T01:55:57.452Z,100675.44
2022-08-02T01:58:27.835Z,100675.63
2022-08-02T02:00:56.950Z,100682.47
2022-08-02T02:03:25.536Z,100672.97
2022-08-02T02:05:54.751Z,100671.50
2022-08-02T02:08:28.424Z,100672.75
2022-08-02T02:10:56.694Z,100670.03
2022-08-02T02:13:33.651Z,100667.75
2022-08-02T02:16:04.079Z,100664.47
2022-08-02T02:18:40.174Z,100663.25
2022-08-02T02:21:07.402Z,100657.50
2022-08-02T02:23:35.612Z,100653.56
2022-08-02T02:26:09.925Z,100651.88
2022-08-02T02:28:37.805Z,100656.44
2022-08-02T02:31:09.792Z,100650.22
2022-08-02T02:34:06.325Z,100641.56
2022-08-02T02:36:33.712Z,100641.34
2022-08-02T02:39:13.704Z,100635.75
2022-08-02T02:41:41.427Z,100628.94
2022-08-02T02:44:11.376Z,100628.72
2022-08-02T02:46:41.125Z,100629.34
2022-08-02T02:49:10.512Z,100625.03
2022-08-02T02:51:39.967Z,100623.63
2022-08-02T02:54:30.385Z,100622.81
2022-08-02T02:56:58.608Z,100623.84
2022-08-02T02:59:25.473Z,100628.38
2022-08-02T03:01:55.992Z,100621.78
2022-08-02T03:04:25.419Z,100625.91
2022-08-02T03:06:52.141Z,100634.19
2022-08-02T03:09:18.976Z,100639.78
2022-08-02T03:11:46.271Z,100631.31
2022-08-02T03:14:13.471Z,100630.66
2022-08-02T03:16:48.927Z,100629.41
2022-08-02T03:19:16.856Z,100627.13
2022-08-02T03:21:44.869Z,100625.47
2022-08-02T03:24:14.587Z,100624.44
2022-08-02T03:26:41.430Z,100635.00
2022-08-02T03:29:10.115Z,100636.44
2022-08-02T03:31:41.120Z,100637.25
2022-08-02T03:34:08.219Z,100631.88
2022-08-02T03:36:35.400Z,100623.03
2022-08-02T03:39:02.665Z,100632.69
2022-08-02T03:41:33.147Z,100636.63
2022-08-02T03:44:03.093Z,100635.38
2022-08-02T03:46:30.520Z,100636.78
2022-08-02T03:48:59.947Z,100634.91
2022-08-02T03:51:29.221Z,100637.19
2022-08-02T03:54:00.671Z,100643.34
2022-08-02T03:56:30.731Z,100632.84
2022-08-02T03:59:08.234Z,100633.66
2022-08-02T04:01:34.946Z,100628.91
2022-08-02T04:04:01.606Z,100631.41
2022-08-02T04:06:46.010Z,100625.03
2022-08-02T04:09:20.196Z,100618.63
2022-08-02T04:11:46.914Z,100627.69
2022-08-02T04:14:13.646Z,100632.22
2022-08-02T04:16:54.856Z,100632.44
2022-08-02T04:19:25.710Z,100635.75
2022-08-02T04:21:53.484Z,100632.03
2022-08-02T04:24:27.429Z,100634.31
2022-08-02T04:26:58.048Z,100641.13
2022-08-02T04:29:33.168Z,100644.88
2022-08-02T04:32:00.594Z,100644.91
2022-08-02T04:34:27.330Z,100649.03
2022-08-02T04:36:54.638Z,100647.03
2022-08-02T04:39:23.799Z,100652.22
2022-08-02T04:41:53.396Z,100649.94
2022-08-02T04:44:24.155Z,100651.38
2022-08-02T04:46:54.602Z,100647.81
2022-08-02T04:49:21.712Z,100645.53
2022-08-02T04:51:48.708Z,100637.81
2022-08-02T04:54:15.447Z,100619.34
2022-08-02T04:56:42.347Z,100613.84
2022-08-02T04:59:12.451Z,100605.84
2022-08-02T05:01:39.442Z,100591.44
2022-08-02T05:04:06.412Z,100578.41
2022-08-02T05:06:33.169Z,100589.03
2022-08-02T05:09:02.370Z,100583.50
2022-08-02T05:11:38.151Z,100581.50
2022-08-02T05:14:05.816Z,100576.69
2022-08-02T05:16:32.774Z,100583.47
2022-08-02T05:19:03.130Z,100581.28
2022-08-02T05:21:31.876Z,100581.31
2022-08-02T05:24:01.105Z,100583.47
2022-08-02T05:26:36.869Z,100575.84
2022-08-02T05:29:05.017Z,100574.81
2022-08-02T05:31:32.076Z,100572.50
2022-08-02T05:34:08.617Z,100561.84
2022-08-02T05:36:38.290Z,100563.56
2022-08-02T05:39:15.051Z,100562.41
2022-08-02T05:41:45.903Z,100560.56
2022-08-02T05:44:21.635Z,100557.78
2022-08-02T05:46:48.456Z,100559.91
2022-08-02T05:49:15.390Z,100563.69
2022-08-02T05:52:04.465Z,100559.66
2022-08-02T05:54:49.653Z,100560.22
2022-08-02T05:57:21.235Z,100557.63
2022-08-02T06:00:02.940Z,100558.44
2022-08-02T06:03:17.158Z,100565.53
2022-08-02T06:06:09.322Z,100564.44
2022-08-02T06:08:47.375Z,100566.34
2022-08-02T06:11:17.196Z,100569.06
2022-08-02T06:13:44.343Z,100568.81
2022-08-02T06:16:14.216Z,100565.06
2022-08-02T06:18:43.108Z,100558.44
2022-08-02T06:22:35.614Z,100560.34
2022-08-02T06:24:01.064Z,100572.81
2022-08-02T06:26:46.073Z,100578.03
2022-08-02T06:29:13.503Z,100577.53
2022-08-02T06:31:42.086Z,100585.44
2022-08-02T06:34:11.924Z,100592.25
2022-08-02T06:36:45.694Z,100585.09
2022-08-02T06:39:30.452Z,100570.44
2022-08-02T06:41:59.144Z,100563.41
2022-08-02T06:44:47.673Z,100555.03
2022-08-02T06:47:16.559Z,100549.19
2022-08-02T06:49:53.009Z,100557.41
2022-08-02T06:52:28.920Z,100545.00
2022-08-02T06:54:58.273Z,100534.22
2022-08-02T06:57:28.301Z,100537.97
2022-08-02T06:59:55.249Z,100537.34
2022-08-02T07:02:22.264Z,100548.56
2022-08-02T07:05:07.364Z,100548.31
2022-08-02T07:07:43.117Z,100545.09
2022-08-02T07:10:10.018Z,100544.25
2022-08-02T07:12:36.799Z,100545.88
2022-08-02T07:15:13.807Z,100541.53
2022-08-02T07:17:40.533Z,100531.44
2022-08-02T07:20:08.007Z,100530.63
2022-08-02T07:22:34.617Z,100527.66
2022-08-02T07:25:01.515Z,100527.34
2022-08-02T07:27:28.786Z,100532.75
2022-08-02T07:29:55.841Z,100546.44
2022-08-02T07:32:24.467Z,100549.16
2022-08-02T07:35:06.562Z,100550.00
2022-08-02T07:37:55.002Z,100553.53
2022-08-02T07:40:22.471Z,100547.50
2022-08-02T07:42:57.952Z,100556.75
2022-08-02T07:45:25.661Z,100544.53
2022-08-02T07:47:56.900Z,100553.53
2022-08-02T07:50:23.701Z,100545.59
2022-08-02T07:52:57.541Z,100538.81
2022-08-02T07:55:25.470Z,100542.56
2022-08-02T07:58:12.950Z,100530.25
2022-08-02T08:00:45.061Z,100530.47
2022-08-02T08:03:11.886Z,100525.59
2022-08-02T08:05:40.837Z,100526.44
2022-08-02T08:08:07.508Z,100531.25
2022-08-02T08:10:34.320Z,100529.19
2022-08-02T08:13:00.971Z,100523.75
2022-08-02T08:15:27.695Z,100518.91
2022-08-02T08:17:54.308Z,100514.81
2022-08-02T08:20:20.977Z,100518.06
2022-08-02T08:22:47.895Z,100526.81
2022-08-02T08:25:14.560Z,100516.75
2022-08-02T08:27:52.258Z,100511.81
2022-08-02T08:30:20.571Z,100508.50
2022-08-02T08:32:47.516Z,100510.88
2022-08-02T08:35:14.719Z,100500.09
2022-08-02T08:37:41.829Z,100497.34
2022-08-02T08:40:10.226Z,100506.34
2022-08-02T08:42:39.199Z,100502.56
2022-08-02T08:45:07.228Z,100496.25
2022-08-02T08:47:38.766Z,100501.41
2022-08-02T08:50:17.116Z,100502.81
2022-08-02T08:53:03.910Z,100503.66
2022-08-02T08:55:31.641Z,100490.19
2022-08-02T08:58:00.279Z,100504.63
2022-08-02T09:00:27.655Z,100503.22
2022-08-02T09:02:54.391Z,100502.69
2022-08-02T09:05:21.103Z,100497.22
2022-08-02T09:07:50.697Z,100506.88
2022-08-02T09:10:39.963Z,100505.53
2022-08-02T09:13:37.795Z,100509.66
2022-08-02T09:15:56.391Z,100505.81
2022-08-02T09:18:39.848Z,100497.59
2022-08-02T09:21:10.857Z,100497.78
2022-08-02T09:23:57.350Z,100495.53
2022-08-02T09:26:24.288Z,100483.44
2022-08-02T09:28:53.068Z,100488.25
2022-08-02T09:31:24.346Z,100492.09
2022-08-02T09:33:52.526Z,100498.28
2022-08-02T09:36:19.159Z,100493.97
2022-08-02T09:39:04.090Z,100499.94
2022-08-02T09:41:33.405Z,100495.03
2022-08-02T09:44:05.412Z,100496.97
2022-08-02T09:46:39.159Z,100488.44
2022-08-02T09:49:14.645Z,100489.63
2022-08-02T09:51:47.638Z,100489.63
2022-08-02T09:54:25.242Z,100491.50
2022-08-02T09:56:57.466Z,100482.28
2022-08-02T09:59:25.488Z,100476.69
2022-08-02T10:02:00.404Z,100486.44
2022-08-02T10:04:30.511Z,100488.84
2022-08-02T10:06:59.472Z,100479.44
2022-08-02T10:09:28.991Z,100483.28
2022-08-02T10:11:56.157Z,100482.75
2022-08-02T10:14:23.665Z,100478.94
2022-08-02T10:16:55.013Z,100485.13
2022-08-02T10:20:02.076Z,100481.03
2022-08-02T10:22:11.665Z,100478.06
2022-08-02T10:24:40.170Z,100478.03
2022-08-02T10:27:21.906Z,100478.34
2022-08-02T10:29:55.212Z,100478.81
2022-08-02T10:32:30.144Z,100478.19
2022-08-02T10:35:20.044Z,100480.03
2022-08-02T10:38:04.663Z,100469.34
2022-08-02T10:40:54.547Z,100476.66
2022-08-02T10:43:36.521Z,100479.59
2022-08-02T10:46:27.785Z,100476.47
2022-08-02T10:52:03.022Z,100470.31
2022-08-02T10:54:38.882Z,100468.41
2022-08-02T10:57:19.336Z,100470.03
2022-08-02T10:59:46.606Z,100462.22
2022-08-02T11:02:14.072Z,100471.19
2022-08-02T11:04:43.998Z,100470.69
2022-08-02T11:07:34.298Z,100459.25
2022-08-02T11:10:26.546Z,100458.50
2022-08-02T11:13:16.768Z,100454.34
2022-08-02T11:15:49.993Z,100448.25
2022-08-02T11:18:16.938Z,100450.81
2022-08-02T11:20:43.740Z,100449.09
2022-08-02T11:23:44.170Z,100441.66
2022-08-02T11:26:30.592Z,100452.78
2022-08-02T11:29:01.477Z,100442.59
2022-08-02T11:31:28.917Z,100454.47
2022-08-02T11:33:57.687Z,100456.31
2022-08-02T11:36:24.541Z,100446.84
2022-08-02T11:39:09.003Z,100436.69
2022-08-02T11:41:47.325Z,100445.56
2022-08-02T11:44:14.456Z,100438.63
2022-08-02T11:46:41.214Z,100440.69
2022-08-02T11:49:15.735Z,100443.50
2022-08-02T11:51:55.937Z,100443.34
2022-08-02T11:54:24.285Z,100444.91
2022-08-02T11:56:50.937Z,100441.28
2022-08-02T11:59:17.612Z,100441.06
2022-08-02T12:01:46.289Z,100434.44
2022-08-02T12:04:17.315Z,100433.63
2022-08-02T12:06:44.645Z,100429.78
2022-08-02T12:09:18.730Z,100421.50
2022-08-02T12:11:51.604Z,100419.97
2022-08-02T12:14:19.100Z,100422.94
2022-08-02T12:17:04.408Z,100427.44
2022-08-02T12:19:31.055Z,100420.50
2022-08-02T12:22:24.384Z,100424.06
2022-08-02T12:24:56.104Z,100421.44
2022-08-02T12:27:37.098Z,100417.56
2022-08-02T12:30:13.131Z,100420.09
2022-08-02T12:32:40.667Z,100423.06
2022-08-02T12:35:26.661Z,100419.09
2022-08-02T12:37:54.062Z,100410.84
2022-08-02T12:40:29.415Z,100398.41
2022-08-02T12:43:08.942Z,100410.16
2022-08-02T12:45:48.831Z,100413.28
2022-08-02T12:48:17.701Z,100403.44
2022-08-02T12:50:44.571Z,100405.88
2022-08-02T12:53:16.568Z,100391.88
2022-08-02T12:55:59.438Z,100393.88
2022-08-02T12:58:26.953Z,100390.22
2022-08-02T13:00:56.081Z,100393.25
2022-08-02T13:04:09.059Z,100382.16
2022-08-02T13:06:39.458Z,100380.00
2022-08-02T13:09:00.474Z,100383.25
2022-08-02T13:11:27.823Z,100382.44
2022-08-02T13:13:54.743Z,100379.56
2022-08-02T13:16:30.493Z,100383.88
2022-08-02T13:18:59.720Z,100385.72
2022-08-02T13:21:40.654Z,100364.25
2022-08-02T13:24:32.779Z,100360.78
2022-08-02T13:27:05.162Z,100370.59
2022-08-02T13:29:37.936Z,100377.69
2022-08-02T13:32:05.080Z,100357.22
2022-08-02T13:34:31.680Z,100368.03
2022-08-02T13:36:58.385Z,100353.28
2022-08-02T13:39:25.125Z,100360.69
2022-08-02T13:41:56.568Z,100370.53
2022-08-02T13:44:23.290Z,100361.31
2022-08-02T13:46:49.929Z,100356.44
2022-08-02T13:49:19.983Z,100352.47
2022-08-02T13:51:48.719Z,100347.22
2022-08-02T13:54:16.343Z,100347.81
2022-08-02T13:56:43.191Z,100343.59
2022-08-02T13:59:54.328Z,100336.34
2022-08-02T14:01:57.194Z,100334.94
2022-08-02T14:04:27.292Z,100337.19
2022-08-02T14:06:54.163Z,100334.94
2022-08-02T14:09:21.041Z,100331.88
2022-08-02T14:11:48.325Z,100336.00
2022-08-02T14:14:17.204Z,100332.94
2022-08-02T14:16:45.247Z,100323.84
2022-08-02T14:19:16.762Z,100329.16
2022-08-02T14:21:46.859Z,100317.22
2022-08-02T14:24:19.688Z,100325.81
2022-08-02T14:26:47.259Z,100310.94
2022-08-02T14:29:15.295Z,100319.78
2022-08-02T14:31:44.702Z,100316.63
2022-08-02T14:34:19.087Z,100305.53
2022-08-02T14:36:47.579Z,100309.69
2022-08-02T14:39:19.295Z,100308.22
2022-08-02T14:41:59.547Z,100305.78
2022-08-02T14:44:30.403Z,100300.22
2022-08-02T14:46:57.515Z,100310.41
2022-08-02T14:49:25.219Z,100310.00
2022-08-02T14:51:53.578Z,100313.59
2022-08-02T14:54:20.671Z,100310.84
2022-08-02T14:56:56.037Z,100307.47
2022-08-02T14:59:22.734Z,100287.94
2022-08-02T15:01:49.513Z,100295.78
2022-08-02T15:04:16.318Z,100295.56
2022-08-02T15:06:43.005Z,100305.13
2022-08-02T15:09:09.781Z,100292.25
2022-08-02T15:11:47.609Z,100287.59
2022-08-02T15:14:22.359Z,100285.91
2022-08-02T15:16:58.028Z,100278.34
2022-08-02T15:19:41.625Z,100277.84
2022-08-02T15:22:19.424Z,100289.78
2022-08-02T15:24:50.255Z,100274.72
2022-08-02T15:27:17.119Z,100269.53
2022-08-02T15:29:45.016Z,100277.03
2022-08-02T15:32:12.691Z,100276.16
2022-08-02T15:34:40.028Z,100270.31
2022-08-02T15:37:06.789Z,100277.06
2022-08-02T15:39:33.497Z,100272.59
2022-08-02T15:42:00.115Z,100270.94
2022-08-02T15:44:26.793Z,100266.91
2022-08-02T15:47:00.135Z,100258.34
2022-08-02T15:49:26.968Z,100257.66
2022-08-02T15:51:54.373Z,100262.19
2022-08-02T15:54:21.034Z,100266.19
2022-08-02T15:56:47.859Z,100266.50
2022-08-02T15:59:16.722Z,100249.72
2022-08-02T16:01:47.029Z,100270.75
2022-08-02T16:04:15.385Z,100266.56
2022-08-02T16:06:42.255Z,100271.03
2022-08-02T16:09:09.343Z,100266.03
2022-08-02T16:11:35.963Z,100253.63
2022-08-02T16:14:02.651Z,100250.88
2022-08-02T16:16:31.637Z,100270.25
2022-08-02T16:19:47.461Z,100258.16
2022-08-02T16:21:52.774Z,100252.34
2022-08-02T16:24:19.509Z,100255.72
2022-08-02T16:26:46.130Z,100260.78
2022-08-02T16:29:12.975Z,100258.13
2022-08-02T16:31:42.429Z,100258.81
2022-08-02T16:34:09.932Z,100258.59
2022-08-02T16:36:37.106Z,100249.09
2022-08-02T16:39:04.674Z,100241.75
2022-08-02T16:41:51.702Z,100240.31
2022-08-02T16:44:26.874Z,100247.31
2022-08-02T16:46:57.418Z,100248.00
2022-08-02T16:50:07.483Z,100250.91
2022-08-02T16:52:15.416Z,100253.94
2022-08-02T16:54:42.214Z,100248.19
2022-08-02T16:57:08.886Z,100238.91
2022-08-02T16:59:42.847Z,100250.22
2022-08-02T17:02:15.350Z,100237.34
2022-08-02T17:04:45.637Z,100238.72
2022-08-02T17:08:16.476Z,100235.69
2022-08-02T17:10:06.695Z,100236.72
2022-08-02T17:12:36.258Z,100237.94
2022-08-02T17:15:47.032Z,100236.59
2022-08-02T17:17:52.320Z,100231.94
2022-08-02T17:20:19.461Z,100224.75
2022-08-02T17:22:46.171Z,100228.44
2022-08-02T17:25:14.710Z,100224.44
2022-08-02T17:27:42.851Z,100220.88
2022-08-02T17:30:11.285Z,100217.97
2022-08-02T17:32:38.054Z,100212.97
2022-08-02T17:35:06.859Z,100212.66
2022-08-02T17:37:41.756Z,100218.50
2022-08-02T17:40:09.745Z,100216.22
2022-08-02T17:42:36.445Z,100217.53
2022-08-02T17:45:16.795Z,100213.31
2022-08-02T17:48:04.613Z,100214.09
2022-08-02T17:53:14.366Z,100219.34
2022-08-02T17:55:42.694Z,100219.25
2022-08-02T17:58:12.761Z,100212.19
2022-08-02T18:00:39.566Z,100209.53
2022-08-02T18:03:09.836Z,100210.41
2022-08-02T18:05:55.203Z,100209.28
2022-08-02T18:08:23.659Z,100202.97
2022-08-02T18:10:54.398Z,100210.28
2022-08-02T18:13:21.456Z,100208.31
2022-08-02T18:15:49.889Z,100212.00
2022-08-02T18:18:19.274Z,100213.91
2022-08-02T18:20:56.223Z,100220.63
2022-08-02T18:23:23.274Z,100222.22
2022-08-02T18:25:54.916Z,100222.81
2022-08-02T18:28:21.962Z,100227.72
2022-08-02T18:30:53.600Z,100225.91
2022-08-02T18:33:57.414Z,100221.75
2022-08-02T18:36:10.796Z,100227.47
2022-08-02T18:38:51.241Z,100230.66
2022-08-02T18:41:19.035Z,100234.47
2022-08-02T18:43:48.413Z,100237.00
2022-08-02T18:46:17.284Z,100241.31
2022-08-02T18:48:47.957Z,100232.59
2022-08-02T18:51:16.041Z,100249.69
2022-08-02T18:54:04.677Z,100243.31
2022-08-02T18:56:40.823Z,100247.31
2022-08-02T18:59:14.355Z,100253.44
2022-08-02T19:01:50.737Z,100258.97
2022-08-02T19:04:27.098Z,100257.09
2022-08-02T19:06:55.924Z,100263.41
2022-08-02T19:09:22.675Z,100261.28
2022-08-02T19:11:50.214Z,100262.16
2022-08-02T19:14:24.124Z,100250.97
2022-08-02T19:16:59.411Z,100266.25
2022-08-02T19:19:29.078Z,100262.19
2022-08-02T19:22:17.882Z,100273.91
2022-08-02T19:24:44.586Z,100276.66
2022-08-02T19:27:20.708Z,100273.41
2022-08-02T19:29:54.241Z,100275.84
2022-08-02T19:32:40.240Z,100277.50
2022-08-02T19:35:19.286Z,100284.84
2022-08-02T19:37:58.900Z,100283.75
2022-08-02T19:40:28.823Z,100279.13
2022-08-02T19:44:25.303Z,100288.41
2022-08-02T19:45:50.689Z,100287.56
2022-08-02T19:48:24.168Z,100293.31
2022-08-02T19:50:56.790Z,100303.66
2022-08-02T19:53:29.012Z,100292.47
2022-08-02T19:55:58.459Z,100294.94
2022-08-02T19:58:30.422Z,100301.44
2022-08-02T20:00:58.210Z,100305.25
2022-08-02T20:03:50.905Z,100293.78
2022-08-02T20:06:13.581Z,100298.13
2022-08-02T20:08:40.602Z,100302.25
2022-08-02T20:11:19.922Z,100296.53
2022-08-02T20:13:50.054Z,100295.44
2022-08-02T20:16:27.245Z,100297.06
2022-08-02T20:18:57.781Z,100304.19
2022-08-02T20:21:35.433Z,100293.28
2022-08-02T20:24:07.555Z,100295.16
2022-08-02T20:26:35.476Z,100300.06
2022-08-02T20:29:04.086Z,100300.06
2022-08-02T20:31:31.103Z,100303.34
2022-08-02T20:33:57.851Z,100290.81
2022-08-02T20:36:28.131Z,100298.72
2022-08-02T20:38:55.304Z,100296.53
2022-08-02T20:41:37.135Z,100298.72
2022-08-02T20:44:16.210Z,100303.88
2022-08-02T20:46:59.153Z,100300.59
2022-08-02T20:49:40.822Z,100295.13
2022-08-02T20:52:23.650Z,100299.50
2022-08-02T20:54:51.399Z,100296.75
2022-08-02T20:57:18.122Z,100300.59
2022-08-02T20:59:44.774Z,100299.25
2022-08-02T21:02:20.125Z,100302.78
2022-08-02T21:04:47.006Z,100303.59
2022-08-02T21:07:13.691Z,100298.44
2022-08-02T21:09:52.763Z,100299.25
2022-08-02T21:15:36.594Z,100296.00
2022-08-02T21:18:08.007Z,100300.38
2022-08-02T21:20:44.120Z,100295.47
2022-08-02T21:23:18.182Z,100298.22
2022-08-02T21:25:56.929Z,100294.41
2022-08-02T21:28:24.911Z,100295.19
2022-08-02T21:31:10.933Z,100296.28
2022-08-02T21:33:56.801Z,100295.75
2022-08-02T21:36:32.664Z,100291.38
2022-08-02T21:39:04.443Z,100294.13
2022-08-02T21:41:38.957Z,100294.66
2022-08-02T21:44:16.005Z,100296.84
2022-08-02T21:46:48.865Z,100292.22
2022-08-02T21:49:20.674Z,100292.78
2022-08-02T21:51:49.036Z,100286.25
2022-08-02T21:57:04.157Z,100287.59
2022-08-02T21:59:30.843Z,100293.03
2022-08-02T22:01:59.660Z,100298.72
2022-08-02T22:04:26.585Z,100296.84
2022-08-02T22:06:54.911Z,100296.78
2022-08-02T22:09:44.422Z,100302.78
2022-08-02T22:12:10.315Z,100300.06
2022-08-02T22:14:39.960Z,100301.94
2022-08-02T22:17:13.762Z,100310.94
2022-08-02T22:19:54.144Z,100306.56
2022-08-02T22:22:28.523Z,100303.00
2022-08-02T22:24:56.497Z,100313.06
2022-08-02T22:27:24.154Z,100318.22
2022-08-02T22:30:11.241Z,100323.34
2022-08-02T22:32:56.653Z,100320.91
2022-08-02T22:35:23.327Z,100319.00
2022-08-02T22:38:14.700Z,100314.41
2022-08-02T22:40:36.596Z,100322.81
2022-08-02T22:43:05.181Z,100318.75
2022-08-02T22:45:31.949Z,100318.72
2022-08-02T22:48:04.470Z,100321.97
2022-08-02T22:50:31.286Z,100320.59
2022-08-02T22:52:58.490Z,100321.41
2022-08-02T22:55:25.227Z,100321.66
2022-08-02T22:57:59.070Z,100323.06
2022-08-02T22:59:11.208Z,100296.59
2022-08-02T23:00:26.270Z,100325.53
2022-08-02T23:02:52.946Z,100318.72
2022-08-02T23:05:20.774Z,100316.00
2022-08-02T23:07:47.429Z,100321.44
2022-08-02T23:10:14.286Z,100313.81
2022-08-02T23:12:41.077Z,100311.56
2022-08-02T23:15:08.398Z,100315.66
2022-08-02T23:17:53.439Z,100304.78
2022-08-02T23:20:20.431Z,100309.66
2022-08-02T23:22:47.049Z,100312.38
2022-08-02T23:25:14.370Z,100310.75
2022-08-02T23:27:50.854Z,100311.84
2022-08-02T23:30:18.474Z,100312.38
2022-08-02T23:32:46.901Z,100309.44
2022-08-02T23:35:16.625Z,100300.75
2022-08-02T23:38:00.351Z,100305.88
2022-08-02T23:40:39.572Z,100310.53
2022-08-02T23:43:13.610Z,100308.91
2022-08-02T23:45:41.464Z,100309.13
2022-08-02T23:48:08.044Z,100307.47
2022-08-02T23:50:34.690Z,100307.47
2022-08-02T23:53:01.293Z,100306.66
2022-08-02T23:55:27.925Z,100305.34
2022-08-02T23:57:54.781Z,100313.19
